sensor_id;sensor_type;location;lat;lon;timestamp;P1;durP1;ratioP1;P2;durP2;ratioP2
48813;SDS011;34634;44.108;3.074;2022-07-04T00:00:47;1.83;;;1.30;;
48813;SDS011;34634;44.108;3.074;2022-07-04T00:03:14;5.35;;;1.40;;
48813;SDS011;34634;44.108;3.074;2022-07-04T00:05:40;3.92;;;1.40;;
48813;SDS011;34634;44.108;3.074;2022-07-04T00:08:06;2.20;;;1.58;;
48813;SDS011;34634;44.108;3.074;2022-07-04T00:10:33;4.57;;;1.50;;
48813;SDS011;34634;44.108;3.074;2022-07-04T00:12:59;9.70;;;1.60;;
48813;SDS011;34634;44.108;3.074;2022-07-04T00:15:25;3.00;;;1.48;;
48813;SDS011;34634;44.108;3.074;2022-07-04T00:17:52;2.53;;;1.38;;
48813;SDS011;34634;44.108;3.074;2022-07-04T00:20:18;6.45;;;1.70;;
48813;SDS011;34634;44.108;3.074;2022-07-04T00:22:44;3.25;;;1.23;;
48813;SDS011;34634;44.108;3.074;2022-07-04T00:25:11;5.10;;;1.42;;
48813;SDS011;34634;44.108;3.074;2022-07-04T00:27:37;3.05;;;1.33;;
48813;SDS011;34634;44.108;3.074;2022-07-04T00:30:04;2.38;;;1.23;;
48813;SDS011;34634;44.108;3.074;2022-07-04T00:32:31;3.60;;;1.30;;
48813;SDS011;34634;44.108;3.074;2022-07-04T00:34:57;1.92;;;1.20;;
48813;SDS011;34634;44.108;3.074;2022-07-04T00:37:23;2.83;;;1.20;;
48813;SDS011;34634;44.108;3.074;2022-07-04T00:39:50;3.55;;;1.35;;
48813;SDS011;34634;44.108;3.074;2022-07-04T00:42:16;7.10;;;1.30;;
48813;SDS011;34634;44.108;3.074;2022-07-04T00:44:42;6.82;;;1.38;;
48813;SDS011;34634;44.108;3.074;2022-07-04T00:47:09;6.28;;;1.75;;
48813;SDS011;34634;44.108;3.074;2022-07-04T00:49:35;2.67;;;1.23;;
48813;SDS011;34634;44.108;3.074;2022-07-04T00:52:02;3.78;;;1.10;;
48813;SDS011;34634;44.108;3.074;2022-07-04T00:54:29;4.85;;;1.10;;
48813;SDS011;34634;44.108;3.074;2022-07-04T00:56:56;8.98;;;1.50;;
48813;SDS011;34634;44.108;3.074;2022-07-04T00:59:23;4.68;;;1.42;;
48813;SDS011;34634;44.108;3.074;2022-07-04T01:01:49;6.10;;;1.60;;
48813;SDS011;34634;44.108;3.074;2022-07-04T01:04:16;2.78;;;1.50;;
48813;SDS011;34634;44.108;3.074;2022-07-04T01:06:42;6.07;;;1.48;;
48813;SDS011;34634;44.108;3.074;2022-07-04T01:09:10;6.00;;;1.42;;
48813;SDS011;34634;44.108;3.074;2022-07-04T01:11:36;4.07;;;1.38;;
48813;SDS011;34634;44.108;3.074;2022-07-04T01:14:03;7.15;;;1.48;;
48813;SDS011;34634;44.108;3.074;2022-07-04T01:16:31;4.38;;;1.10;;
48813;SDS011;34634;44.108;3.074;2022-07-04T01:18:58;5.00;;;1.50;;
48813;SDS011;34634;44.108;3.074;2022-07-04T01:21:25;4.75;;;1.60;;
48813;SDS011;34634;44.108;3.074;2022-07-04T01:23:51;4.97;;;1.20;;
48813;SDS011;34634;44.108;3.074;2022-07-04T01:26:17;7.28;;;1.67;;
48813;SDS011;34634;44.108;3.074;2022-07-04T01:28:44;3.05;;;1.40;;
48813;SDS011;34634;44.108;3.074;2022-07-04T01:31:10;2.42;;;1.20;;
48813;SDS011;34634;44.108;3.074;2022-07-04T01:33:37;3.35;;;1.38;;
48813;SDS011;34634;44.108;3.074;2022-07-04T01:36:03;2.53;;;1.30;;
48813;SDS011;34634;44.108;3.074;2022-07-04T01:38:29;4.95;;;1.20;;
48813;SDS011;34634;44.108;3.074;2022-07-04T01:40:55;4.55;;;1.58;;
48813;SDS011;34634;44.108;3.074;2022-07-04T01:43:22;3.03;;;1.77;;
48813;SDS011;34634;44.108;3.074;2022-07-04T01:45:48;6.20;;;1.38;;
48813;SDS011;34634;44.108;3.074;2022-07-04T01:48:14;8.52;;;1.50;;
48813;SDS011;34634;44.108;3.074;2022-07-04T01:50:41;3.42;;;1.63;;
48813;SDS011;34634;44.108;3.074;2022-07-04T01:53:07;6.32;;;1.60;;
48813;SDS011;34634;44.108;3.074;2022-07-04T01:55:33;3.70;;;1.42;;
48813;SDS011;34634;44.108;3.074;2022-07-04T01:58:00;3.15;;;1.60;;
48813;SDS011;34634;44.108;3.074;2022-07-04T02:00:26;5.07;;;1.40;;
48813;SDS011;34634;44.108;3.074;2022-07-04T02:03:11;5.18;;;1.45;;
48813;SDS011;34634;44.108;3.074;2022-07-04T02:05:38;4.30;;;1.17;;
48813;SDS011;34634;44.108;3.074;2022-07-04T02:08:04;4.20;;;1.40;;
48813;SDS011;34634;44.108;3.074;2022-07-04T02:10:31;3.40;;;1.52;;
48813;SDS011;34634;44.108;3.074;2022-07-04T02:12:57;2.92;;;1.60;;
48813;SDS011;34634;44.108;3.074;2022-07-04T02:15:30;7.22;;;1.58;;
48813;SDS011;34634;44.108;3.074;2022-07-04T02:17:57;4.43;;;1.50;;
48813;SDS011;34634;44.108;3.074;2022-07-04T02:20:23;4.68;;;1.40;;
48813;SDS011;34634;44.108;3.074;2022-07-04T02:22:50;5.10;;;1.50;;
48813;SDS011;34634;44.108;3.074;2022-07-04T02:25:17;4.95;;;1.40;;
48813;SDS011;34634;44.108;3.074;2022-07-04T02:27:43;3.00;;;1.50;;
48813;SDS011;34634;44.108;3.074;2022-07-04T02:30:09;3.10;;;1.50;;
48813;SDS011;34634;44.108;3.074;2022-07-04T02:32:36;5.47;;;1.60;;
48813;SDS011;34634;44.108;3.074;2022-07-04T02:35:03;1.58;;;1.02;;
48813;SDS011;34634;44.108;3.074;2022-07-04T02:37:29;2.28;;;1.77;;
48813;SDS011;34634;44.108;3.074;2022-07-04T02:39:56;4.70;;;1.83;;
48813;SDS011;34634;44.108;3.074;2022-07-04T02:42:22;3.72;;;1.50;;
48813;SDS011;34634;44.108;3.074;2022-07-04T02:44:49;5.35;;;1.70;;
48813;SDS011;34634;44.108;3.074;2022-07-04T02:47:15;5.82;;;1.55;;
48813;SDS011;34634;44.108;3.074;2022-07-04T02:49:42;2.75;;;1.60;;
48813;SDS011;34634;44.108;3.074;2022-07-04T02:52:08;1.60;;;1.33;;
48813;SDS011;34634;44.108;3.074;2022-07-04T02:54:34;4.85;;;1.70;;
48813;SDS011;34634;44.108;3.074;2022-07-04T02:57:01;4.25;;;1.63;;
48813;SDS011;34634;44.108;3.074;2022-07-04T02:59:27;11.40;;;1.92;;
48813;SDS011;34634;44.108;3.074;2022-07-04T03:01:53;3.45;;;1.60;;
48813;SDS011;34634;44.108;3.074;2022-07-04T03:04:20;6.85;;;1.67;;
48813;SDS011;34634;44.108;3.074;2022-07-04T03:06:46;3.65;;;1.70;;
48813;SDS011;34634;44.108;3.074;2022-07-04T03:09:12;3.30;;;1.33;;
48813;SDS011;34634;44.108;3.074;2022-07-04T03:11:39;3.83;;;1.48;;
48813;SDS011;34634;44.108;3.074;2022-07-04T03:14:05;2.90;;;1.55;;
48813;SDS011;34634;44.108;3.074;2022-07-04T03:16:31;4.90;;;1.75;;
48813;SDS011;34634;44.108;3.074;2022-07-04T03:18:58;5.75;;;1.75;;
48813;SDS011;34634;44.108;3.074;2022-07-04T03:21:24;3.65;;;1.60;;
48813;SDS011;34634;44.108;3.074;2022-07-04T03:23:50;3.30;;;1.70;;
48813;SDS011;34634;44.108;3.074;2022-07-04T03:26:31;4.05;;;1.42;;
48813;SDS011;34634;44.108;3.074;2022-07-04T03:28:58;3.83;;;1.50;;
48813;SDS011;34634;44.108;3.074;2022-07-04T03:31:24;6.35;;;1.85;;
48813;SDS011;34634;44.108;3.074;2022-07-04T03:33:52;7.55;;;1.80;;
48813;SDS011;34634;44.108;3.074;2022-07-04T03:36:18;6.28;;;1.98;;
48813;SDS011;34634;44.108;3.074;2022-07-04T03:38:45;6.05;;;1.80;;
48813;SDS011;34634;44.108;3.074;2022-07-04T03:41:11;4.32;;;1.80;;
48813;SDS011;34634;44.108;3.074;2022-07-04T03:43:38;6.05;;;1.67;;
48813;SDS011;34634;44.108;3.074;2022-07-04T03:46:04;3.22;;;1.50;;
48813;SDS011;34634;44.108;3.074;2022-07-04T03:48:30;4.25;;;1.85;;
48813;SDS011;34634;44.108;3.074;2022-07-04T03:50:57;5.80;;;1.80;;
48813;SDS011;34634;44.108;3.074;2022-07-04T03:53:23;3.70;;;1.75;;
48813;SDS011;34634;44.108;3.074;2022-07-04T03:55:50;6.65;;;1.90;;
48813;SDS011;34634;44.108;3.074;2022-07-04T03:58:16;6.47;;;1.70;;
48813;SDS011;34634;44.108;3.074;2022-07-04T04:00:42;8.05;;;1.65;;
48813;SDS011;34634;44.108;3.074;2022-07-04T04:03:09;3.95;;;1.60;;
48813;SDS011;34634;44.108;3.074;2022-07-04T04:05:54;6.28;;;1.73;;
48813;SDS011;34634;44.108;3.074;2022-07-04T04:08:21;4.20;;;1.83;;
48813;SDS011;34634;44.108;3.074;2022-07-04T04:10:48;10.65;;;1.85;;
48813;SDS011;34634;44.108;3.074;2022-07-04T04:13:16;3.30;;;1.80;;
48813;SDS011;34634;44.108;3.074;2022-07-04T04:15:42;1.88;;;1.48;;
48813;SDS011;34634;44.108;3.074;2022-07-04T04:18:08;7.15;;;1.90;;
48813;SDS011;34634;44.108;3.074;2022-07-04T04:20:35;6.07;;;1.92;;
48813;SDS011;34634;44.108;3.074;2022-07-04T04:23:01;2.80;;;1.70;;
48813;SDS011;34634;44.108;3.074;2022-07-04T04:25:27;6.70;;;1.95;;
48813;SDS011;34634;44.108;3.074;2022-07-04T04:27:53;6.05;;;1.63;;
48813;SDS011;34634;44.108;3.074;2022-07-04T04:30:20;2.33;;;1.40;;
48813;SDS011;34634;44.108;3.074;2022-07-04T04:32:46;3.83;;;1.63;;
48813;SDS011;34634;44.108;3.074;2022-07-04T04:35:12;4.28;;;1.70;;
48813;SDS011;34634;44.108;3.074;2022-07-04T04:37:39;2.78;;;1.55;;
48813;SDS011;34634;44.108;3.074;2022-07-04T04:40:05;5.18;;;1.50;;
48813;SDS011;34634;44.108;3.074;2022-07-04T04:42:32;3.63;;;1.75;;
48813;SDS011;34634;44.108;3.074;2022-07-04T04:44:58;3.97;;;1.70;;
48813;SDS011;34634;44.108;3.074;2022-07-04T04:47:25;5.97;;;1.70;;
48813;SDS011;34634;44.108;3.074;2022-07-04T04:49:51;4.57;;;1.73;;
48813;SDS011;34634;44.108;3.074;2022-07-04T04:52:17;4.07;;;1.92;;
48813;SDS011;34634;44.108;3.074;2022-07-04T04:54:44;2.92;;;1.52;;
48813;SDS011;34634;44.108;3.074;2022-07-04T04:57:10;4.63;;;1.70;;
48813;SDS011;34634;44.108;3.074;2022-07-04T04:59:36;7.10;;;2.03;;
48813;SDS011;34634;44.108;3.074;2022-07-04T05:02:03;5.07;;;1.90;;
48813;SDS011;34634;44.108;3.074;2022-07-04T05:04:29;3.28;;;1.80;;
48813;SDS011;34634;44.108;3.074;2022-07-04T05:06:55;4.93;;;1.88;;
48813;SDS011;34634;44.108;3.074;2022-07-04T05:09:22;10.43;;;2.10;;
48813;SDS011;34634;44.108;3.074;2022-07-04T05:11:48;6.07;;;2.22;;
48813;SDS011;34634;44.108;3.074;2022-07-04T05:14:15;7.53;;;2.50;;
48813;SDS011;34634;44.108;3.074;2022-07-04T05:16:42;7.68;;;2.70;;
48813;SDS011;34634;44.108;3.074;2022-07-04T05:19:08;7.45;;;2.60;;
48813;SDS011;34634;44.108;3.074;2022-07-04T05:21:34;5.85;;;1.98;;
48813;SDS011;34634;44.108;3.074;2022-07-04T05:24:01;6.68;;;2.17;;
48813;SDS011;34634;44.108;3.074;2022-07-04T05:26:27;5.15;;;2.15;;
48813;SDS011;34634;44.108;3.074;2022-07-04T05:28:54;5.53;;;2.40;;
48813;SDS011;34634;44.108;3.074;2022-07-04T05:31:22;5.97;;;2.33;;
48813;SDS011;34634;44.108;3.074;2022-07-04T05:33:51;6.20;;;2.15;;
48813;SDS011;34634;44.108;3.074;2022-07-04T05:36:17;6.95;;;2.28;;
48813;SDS011;34634;44.108;3.074;2022-07-04T05:38:44;5.13;;;1.90;;
48813;SDS011;34634;44.108;3.074;2022-07-04T05:41:11;5.28;;;2.25;;
48813;SDS011;34634;44.108;3.074;2022-07-04T05:43:37;10.25;;;2.33;;
48813;SDS011;34634;44.108;3.074;2022-07-04T05:46:03;8.07;;;2.47;;
48813;SDS011;34634;44.108;3.074;2022-07-04T05:48:30;3.75;;;2.15;;
48813;SDS011;34634;44.108;3.074;2022-07-04T05:50:56;3.47;;;1.90;;
48813;SDS011;34634;44.108;3.074;2022-07-04T05:53:22;4.60;;;1.98;;
48813;SDS011;34634;44.108;3.074;2022-07-04T05:55:48;6.55;;;2.28;;
48813;SDS011;34634;44.108;3.074;2022-07-04T05:58:15;12.00;;;2.45;;
48813;SDS011;34634;44.108;3.074;2022-07-04T06:00:41;4.80;;;2.38;;
48813;SDS011;34634;44.108;3.074;2022-07-04T06:03:07;3.03;;;2.20;;
48813;SDS011;34634;44.108;3.074;2022-07-04T06:05:34;4.15;;;2.13;;
48813;SDS011;34634;44.108;3.074;2022-07-04T06:08:00;5.03;;;2.65;;
48813;SDS011;34634;44.108;3.074;2022-07-04T06:10:27;7.63;;;2.30;;
48813;SDS011;34634;44.108;3.074;2022-07-04T06:12:53;5.00;;;2.33;;
48813;SDS011;34634;44.108;3.074;2022-07-04T06:15:20;8.25;;;2.88;;
48813;SDS011;34634;44.108;3.074;2022-07-04T06:17:46;6.88;;;2.70;;
48813;SDS011;34634;44.108;3.074;2022-07-04T06:20:12;8.07;;;2.50;;
48813;SDS011;34634;44.108;3.074;2022-07-04T06:22:39;5.00;;;2.70;;
48813;SDS011;34634;44.108;3.074;2022-07-04T06:25:09;4.97;;;2.30;;
48813;SDS011;34634;44.108;3.074;2022-07-04T06:27:36;4.53;;;2.10;;
48813;SDS011;34634;44.108;3.074;2022-07-04T06:30:03;7.97;;;2.10;;
48813;SDS011;34634;44.108;3.074;2022-07-04T06:32:30;7.15;;;1.90;;
48813;SDS011;34634;44.108;3.074;2022-07-04T06:34:56;3.42;;;1.70;;
48813;SDS011;34634;44.108;3.074;2022-07-04T06:37:41;2.92;;;2.05;;
48813;SDS011;34634;44.108;3.074;2022-07-04T06:40:07;3.83;;;1.90;;
48813;SDS011;34634;44.108;3.074;2022-07-04T06:42:34;6.40;;;2.20;;
48813;SDS011;34634;44.108;3.074;2022-07-04T06:45:00;3.17;;;1.90;;
48813;SDS011;34634;44.108;3.074;2022-07-04T06:47:26;4.25;;;1.98;;
48813;SDS011;34634;44.108;3.074;2022-07-04T06:49:53;5.47;;;1.50;;
48813;SDS011;34634;44.108;3.074;2022-07-04T06:52:19;4.97;;;1.92;;
48813;SDS011;34634;44.108;3.074;2022-07-04T06:54:45;2.83;;;1.48;;
48813;SDS011;34634;44.108;3.074;2022-07-04T06:57:12;2.83;;;1.70;;
48813;SDS011;34634;44.108;3.074;2022-07-04T06:59:39;12.20;;;1.65;;
48813;SDS011;34634;44.108;3.074;2022-07-04T07:02:05;5.70;;;1.90;;
48813;SDS011;34634;44.108;3.074;2022-07-04T07:04:32;5.68;;;1.77;;
48813;SDS011;34634;44.108;3.074;2022-07-04T07:06:58;5.70;;;1.98;;
48813;SDS011;34634;44.108;3.074;2022-07-04T07:09:25;6.85;;;1.85;;
48813;SDS011;34634;44.108;3.074;2022-07-04T07:11:51;4.60;;;2.15;;
48813;SDS011;34634;44.108;3.074;2022-07-04T07:14:17;4.38;;;1.92;;
48813;SDS011;34634;44.108;3.074;2022-07-04T07:16:44;5.30;;;1.70;;
48813;SDS011;34634;44.108;3.074;2022-07-04T07:19:10;2.83;;;1.70;;
48813;SDS011;34634;44.108;3.074;2022-07-04T07:21:36;6.15;;;1.90;;
48813;SDS011;34634;44.108;3.074;2022-07-04T07:24:03;4.38;;;1.80;;
48813;SDS011;34634;44.108;3.074;2022-07-04T07:26:29;6.05;;;1.80;;
48813;SDS011;34634;44.108;3.074;2022-07-04T07:28:55;4.85;;;2.25;;
48813;SDS011;34634;44.108;3.074;2022-07-04T07:31:22;12.00;;;2.53;;
48813;SDS011;34634;44.108;3.074;2022-07-04T07:33:48;5.47;;;2.00;;
48813;SDS011;34634;44.108;3.074;2022-07-04T07:36:14;3.58;;;1.70;;
48813;SDS011;34634;44.108;3.074;2022-07-04T07:38:41;6.63;;;2.00;;
48813;SDS011;34634;44.108;3.074;2022-07-04T07:41:08;5.15;;;2.00;;
48813;SDS011;34634;44.108;3.074;2022-07-04T07:43:34;7.32;;;2.10;;
48813;SDS011;34634;44.108;3.074;2022-07-04T07:46:02;5.43;;;1.80;;
48813;SDS011;34634;44.108;3.074;2022-07-04T07:48:29;2.45;;;1.58;;
48813;SDS011;34634;44.108;3.074;2022-07-04T07:50:56;4.22;;;1.83;;
48813;SDS011;34634;44.108;3.074;2022-07-04T07:53:22;5.40;;;2.25;;
48813;SDS011;34634;44.108;3.074;2022-07-04T07:55:48;4.55;;;1.80;;
48813;SDS011;34634;44.108;3.074;2022-07-04T07:58:15;4.78;;;1.80;;
48813;SDS011;34634;44.108;3.074;2022-07-04T08:00:41;4.43;;;1.75;;
48813;SDS011;34634;44.108;3.074;2022-07-04T08:03:07;5.25;;;1.80;;
48813;SDS011;34634;44.108;3.074;2022-07-04T08:05:52;3.70;;;1.83;;
48813;SDS011;34634;44.108;3.074;2022-07-04T08:08:18;8.18;;;1.80;;
48813;SDS011;34634;44.108;3.074;2022-07-04T08:10:47;6.07;;;1.83;;
48813;SDS011;34634;44.108;3.074;2022-07-04T08:13:13;4.88;;;1.52;;
48813;SDS011;34634;44.108;3.074;2022-07-04T08:15:40;3.63;;;1.80;;
48813;SDS011;34634;44.108;3.074;2022-07-04T08:18:06;6.95;;;2.00;;
48813;SDS011;34634;44.108;3.074;2022-07-04T08:20:32;3.80;;;1.70;;
48813;SDS011;34634;44.108;3.074;2022-07-04T08:22:59;3.95;;;1.75;;
48813;SDS011;34634;44.108;3.074;2022-07-04T08:25:25;3.95;;;1.50;;
48813;SDS011;34634;44.108;3.074;2022-07-04T08:27:51;6.85;;;1.73;;
48813;SDS011;34634;44.108;3.074;2022-07-04T08:30:18;5.22;;;1.70;;
48813;SDS011;34634;44.108;3.074;2022-07-04T08:32:44;4.60;;;1.73;;
48813;SDS011;34634;44.108;3.074;2022-07-04T08:35:11;4.10;;;1.60;;
48813;SDS011;34634;44.108;3.074;2022-07-04T08:37:38;6.05;;;1.70;;
48813;SDS011;34634;44.108;3.074;2022-07-04T08:40:06;4.43;;;1.92;;
48813;SDS011;34634;44.108;3.074;2022-07-04T08:42:37;6.97;;;2.03;;
48813;SDS011;34634;44.108;3.074;2022-07-04T08:45:04;5.03;;;1.52;;
48813;SDS011;34634;44.108;3.074;2022-07-04T08:47:32;3.20;;;1.70;;
48813;SDS011;34634;44.108;3.074;2022-07-04T08:50:05;2.35;;;1.77;;
48813;SDS011;34634;44.108;3.074;2022-07-04T08:52:39;3.28;;;1.67;;
48813;SDS011;34634;44.108;3.074;2022-07-04T08:55:07;3.90;;;1.92;;
48813;SDS011;34634;44.108;3.074;2022-07-04T08:57:52;4.07;;;1.80;;
48813;SDS011;34634;44.108;3.074;2022-07-04T09:00:38;6.93;;;1.58;;
48813;SDS011;34634;44.108;3.074;2022-07-04T09:03:04;6.65;;;1.83;;
48813;SDS011;34634;44.108;3.074;2022-07-04T09:05:31;6.50;;;1.67;;
48813;SDS011;34634;44.108;3.074;2022-07-04T09:07:58;4.70;;;1.60;;
48813;SDS011;34634;44.108;3.074;2022-07-04T09:10:25;7.05;;;1.55;;
48813;SDS011;34634;44.108;3.074;2022-07-04T09:12:51;4.72;;;1.98;;
48813;SDS011;34634;44.108;3.074;2022-07-04T09:15:18;5.82;;;1.60;;
48813;SDS011;34634;44.108;3.074;2022-07-04T09:17:45;3.38;;;1.70;;
48813;SDS011;34634;44.108;3.074;2022-07-04T09:20:18;4.85;;;1.98;;
48813;SDS011;34634;44.108;3.074;2022-07-04T09:22:45;3.90;;;1.80;;
48813;SDS011;34634;44.108;3.074;2022-07-04T09:25:12;6.63;;;1.67;;
48813;SDS011;34634;44.108;3.074;2022-07-04T09:27:43;8.38;;;1.85;;
48813;SDS011;34634;44.108;3.074;2022-07-04T09:30:11;5.57;;;1.90;;
48813;SDS011;34634;44.108;3.074;2022-07-04T09:32:39;5.07;;;1.77;;
48813;SDS011;34634;44.108;3.074;2022-07-04T09:35:09;5.10;;;1.80;;
48813;SDS011;34634;44.108;3.074;2022-07-04T09:37:40;4.53;;;1.73;;
48813;SDS011;34634;44.108;3.074;2022-07-04T09:42:51;7.88;;;2.13;;
48813;SDS011;34634;44.108;3.074;2022-07-04T09:45:18;9.70;;;1.88;;
48813;SDS011;34634;44.108;3.074;2022-07-04T09:47:47;7.97;;;2.00;;
48813;SDS011;34634;44.108;3.074;2022-07-04T09:50:15;4.60;;;1.60;;
48813;SDS011;34634;44.108;3.074;2022-07-04T09:57:51;4.68;;;1.80;;
48813;SDS011;34634;44.108;3.074;2022-07-04T10:02:44;3.92;;;1.88;;
48813;SDS011;34634;44.108;3.074;2022-07-04T10:05:10;6.25;;;1.92;;
48813;SDS011;34634;44.108;3.074;2022-07-04T10:07:37;2.47;;;1.70;;
48813;SDS011;34634;44.108;3.074;2022-07-04T10:10:29;5.18;;;2.25;;
48813;SDS011;34634;44.108;3.074;2022-07-04T10:13:01;4.57;;;1.73;;
48813;SDS011;34634;44.108;3.074;2022-07-04T10:15:27;5.30;;;1.90;;
48813;SDS011;34634;44.108;3.074;2022-07-04T10:17:54;2.60;;;1.95;;
48813;SDS011;34634;44.108;3.074;2022-07-04T10:20:21;4.43;;;2.00;;
48813;SDS011;34634;44.108;3.074;2022-07-04T10:22:47;8.35;;;2.20;;
48813;SDS011;34634;44.108;3.074;2022-07-04T10:25:14;2.80;;;1.90;;
48813;SDS011;34634;44.108;3.074;2022-07-04T10:27:40;5.32;;;1.90;;
48813;SDS011;34634;44.108;3.074;2022-07-04T10:30:08;6.85;;;2.10;;
48813;SDS011;34634;44.108;3.074;2022-07-04T10:32:35;4.82;;;1.90;;
48813;SDS011;34634;44.108;3.074;2022-07-04T10:35:02;3.38;;;1.95;;
48813;SDS011;34634;44.108;3.074;2022-07-04T10:43:36;5.90;;;2.40;;
48813;SDS011;34634;44.108;3.074;2022-07-04T10:48:49;3.33;;;1.77;;
48813;SDS011;34634;44.108;3.074;2022-07-04T10:51:22;3.03;;;2.05;;
48813;SDS011;34634;44.108;3.074;2022-07-04T10:53:58;8.75;;;2.15;;
48813;SDS011;34634;44.108;3.074;2022-07-04T10:58:51;6.15;;;1.90;;
48813;SDS011;34634;44.108;3.074;2022-07-04T11:01:18;3.28;;;1.77;;
48813;SDS011;34634;44.108;3.074;2022-07-04T11:03:47;4.63;;;2.00;;
48813;SDS011;34634;44.108;3.074;2022-07-04T11:11:55;5.57;;;2.22;;
48813;SDS011;34634;44.108;3.074;2022-07-04T11:17:01;9.93;;;1.90;;
48813;SDS011;34634;44.108;3.074;2022-07-04T11:19:27;2.75;;;1.90;;
48813;SDS011;34634;44.108;3.074;2022-07-04T11:21:54;3.40;;;1.75;;
48813;SDS011;34634;44.108;3.074;2022-07-04T11:24:21;5.45;;;2.28;;
48813;SDS011;34634;44.108;3.074;2022-07-04T11:26:48;2.85;;;1.98;;
48813;SDS011;34634;44.108;3.074;2022-07-04T11:29:14;4.40;;;2.10;;
48813;SDS011;34634;44.108;3.074;2022-07-04T11:31:41;4.88;;;2.25;;
48813;SDS011;34634;44.108;3.074;2022-07-04T11:34:08;2.92;;;2.20;;
48813;SDS011;34634;44.108;3.074;2022-07-04T11:36:35;3.95;;;2.30;;
48813;SDS011;34634;44.108;3.074;2022-07-04T11:39:04;3.13;;;2.20;;
48813;SDS011;34634;44.108;3.074;2022-07-04T11:41:32;4.65;;;2.20;;
48813;SDS011;34634;44.108;3.074;2022-07-04T11:44:17;3.83;;;2.35;;
48813;SDS011;34634;44.108;3.074;2022-07-04T11:49:32;2.85;;;2.38;;
48813;SDS011;34634;44.108;3.074;2022-07-04T11:51:58;6.10;;;2.60;;
48813;SDS011;34634;44.108;3.074;2022-07-04T11:54:25;5.88;;;3.20;;
48813;SDS011;34634;44.108;3.074;2022-07-04T11:56:51;4.00;;;2.80;;
48813;SDS011;34634;44.108;3.074;2022-07-04T11:59:18;6.15;;;2.65;;
48813;SDS011;34634;44.108;3.074;2022-07-04T12:01:44;5.90;;;2.65;;
48813;SDS011;34634;44.108;3.074;2022-07-04T12:04:15;6.07;;;2.95;;
48813;SDS011;34634;44.108;3.074;2022-07-04T12:06:42;8.30;;;2.95;;
48813;SDS011;34634;44.108;3.074;2022-07-04T12:09:08;4.78;;;3.03;;
48813;SDS011;34634;44.108;3.074;2022-07-04T12:11:54;4.75;;;2.72;;
48813;SDS011;34634;44.108;3.074;2022-07-04T15:09:23;3.65;;;1.30;;
48813;SDS011;34634;44.108;3.074;2022-07-04T15:11:50;2.97;;;1.40;;
48813;SDS011;34634;44.108;3.074;2022-07-04T15:14:17;3.85;;;1.20;;
48813;SDS011;34634;44.108;3.074;2022-07-04T15:16:43;2.88;;;1.40;;
48813;SDS011;34634;44.108;3.074;2022-07-04T15:19:10;5.20;;;1.70;;
48813;SDS011;34634;44.108;3.074;2022-07-04T15:21:37;10.95;;;1.75;;
48813;SDS011;34634;44.108;3.074;2022-07-04T15:24:23;4.93;;;1.55;;
48813;SDS011;34634;44.108;3.074;2022-07-04T15:26:50;7.90;;;1.75;;
48813;SDS011;34634;44.108;3.074;2022-07-04T15:29:18;6.90;;;1.30;;
48813;SDS011;34634;44.108;3.074;2022-07-04T15:31:45;10.20;;;1.50;;
48813;SDS011;34634;44.108;3.074;2022-07-04T15:34:12;3.33;;;1.50;;
48813;SDS011;34634;44.108;3.074;2022-07-04T15:36:38;3.10;;;1.40;;
48813;SDS011;34634;44.108;3.074;2022-07-04T15:39:05;4.57;;;1.20;;
48813;SDS011;34634;44.108;3.074;2022-07-04T15:41:32;2.72;;;1.20;;
48813;SDS011;34634;44.108;3.074;2022-07-04T15:43:59;6.95;;;1.75;;
48813;SDS011;34634;44.108;3.074;2022-07-04T15:46:25;6.93;;;1.58;;
48813;SDS011;34634;44.108;3.074;2022-07-04T15:48:51;5.22;;;1.23;;
48813;SDS011;34634;44.108;3.074;2022-07-04T15:51:18;4.28;;;1.30;;
48813;SDS011;34634;44.108;3.074;2022-07-04T15:53:44;6.68;;;1.40;;
48813;SDS011;34634;44.108;3.074;2022-07-04T15:56:11;3.72;;;1.42;;
48813;SDS011;34634;44.108;3.074;2022-07-04T15:58:37;4.38;;;1.40;;
48813;SDS011;34634;44.108;3.074;2022-07-04T16:01:04;6.13;;;1.58;;
48813;SDS011;34634;44.108;3.074;2022-07-04T16:03:30;5.38;;;1.60;;
48813;SDS011;34634;44.108;3.074;2022-07-04T16:05:57;9.00;;;1.50;;
48813;SDS011;34634;44.108;3.074;2022-07-04T16:08:23;2.35;;;1.10;;
48813;SDS011;34634;44.108;3.074;2022-07-04T16:10:49;3.80;;;1.33;;
48813;SDS011;34634;44.108;3.074;2022-07-04T16:13:16;6.80;;;1.38;;
48813;SDS011;34634;44.108;3.074;2022-07-04T16:15:42;4.13;;;1.17;;
48813;SDS011;34634;44.108;3.074;2022-07-04T16:18:09;3.88;;;1.50;;
48813;SDS011;34634;44.108;3.074;2022-07-04T16:20:35;3.95;;;1.23;;
48813;SDS011;34634;44.108;3.074;2022-07-04T16:23:01;5.32;;;1.58;;
48813;SDS011;34634;44.108;3.074;2022-07-04T16:25:28;4.40;;;1.63;;
48813;SDS011;34634;44.108;3.074;2022-07-04T16:27:54;3.72;;;1.48;;
48813;SDS011;34634;44.108;3.074;2022-07-04T16:30:20;6.07;;;1.35;;
48813;SDS011;34634;44.108;3.074;2022-07-04T16:32:46;1.88;;;1.17;;
48813;SDS011;34634;44.108;3.074;2022-07-04T16:35:13;6.03;;;1.85;;
48813;SDS011;34634;44.108;3.074;2022-07-04T16:37:39;3.08;;;1.23;;
48813;SDS011;34634;44.108;3.074;2022-07-04T16:40:07;5.75;;;1.40;;
48813;SDS011;34634;44.108;3.074;2022-07-04T16:42:34;3.80;;;1.27;;
48813;SDS011;34634;44.108;3.074;2022-07-04T16:45:00;3.25;;;1.38;;
48813;SDS011;34634;44.108;3.074;2022-07-04T16:47:27;9.50;;;1.60;;
48813;SDS011;34634;44.108;3.074;2022-07-04T16:49:53;8.80;;;1.77;;
48813;SDS011;34634;44.108;3.074;2022-07-04T16:52:20;4.03;;;1.30;;
48813;SDS011;34634;44.108;3.074;2022-07-04T16:54:46;3.97;;;1.42;;
48813;SDS011;34634;44.108;3.074;2022-07-04T16:57:13;8.57;;;1.48;;
48813;SDS011;34634;44.108;3.074;2022-07-04T16:59:39;4.97;;;1.45;;
48813;SDS011;34634;44.108;3.074;2022-07-04T17:02:06;5.95;;;1.40;;
48813;SDS011;34634;44.108;3.074;2022-07-04T17:04:32;3.33;;;1.50;;
48813;SDS011;34634;44.108;3.074;2022-07-04T17:06:58;3.78;;;1.60;;
48813;SDS011;34634;44.108;3.074;2022-07-04T17:09:25;5.32;;;1.77;;
48813;SDS011;34634;44.108;3.074;2022-07-04T17:11:51;4.55;;;1.45;;
48813;SDS011;34634;44.108;3.074;2022-07-04T17:14:17;3.33;;;1.48;;
48813;SDS011;34634;44.108;3.074;2022-07-04T17:16:44;5.53;;;1.45;;
48813;SDS011;34634;44.108;3.074;2022-07-04T17:19:10;6.70;;;1.33;;
48813;SDS011;34634;44.108;3.074;2022-07-04T17:21:36;4.82;;;1.50;;
48813;SDS011;34634;44.108;3.074;2022-07-04T17:24:03;3.00;;;1.10;;
48813;SDS011;34634;44.108;3.074;2022-07-04T17:26:29;4.95;;;1.40;;
48813;SDS011;34634;44.108;3.074;2022-07-04T17:28:55;4.65;;;1.50;;
48813;SDS011;34634;44.108;3.074;2022-07-04T17:31:22;2.45;;;1.27;;
48813;SDS011;34634;44.108;3.074;2022-07-04T17:33:48;6.20;;;1.67;;
48813;SDS011;34634;44.108;3.074;2022-07-04T17:36:15;4.90;;;1.50;;
48813;SDS011;34634;44.108;3.074;2022-07-04T17:38:41;4.10;;;1.15;;
48813;SDS011;34634;44.108;3.074;2022-07-04T17:41:07;3.78;;;1.23;;
48813;SDS011;34634;44.108;3.074;2022-07-04T17:43:54;4.55;;;1.50;;
48813;SDS011;34634;44.108;3.074;2022-07-04T17:46:20;6.90;;;1.52;;
48813;SDS011;34634;44.108;3.074;2022-07-04T17:48:46;6.15;;;1.60;;
48813;SDS011;34634;44.108;3.074;2022-07-04T17:51:13;3.25;;;1.40;;
48813;SDS011;34634;44.108;3.074;2022-07-04T17:53:39;5.22;;;1.60;;
48813;SDS011;34634;44.108;3.074;2022-07-04T17:56:05;6.82;;;1.75;;
48813;SDS011;34634;44.108;3.074;2022-07-04T17:58:32;5.18;;;1.50;;
48813;SDS011;34634;44.108;3.074;2022-07-04T18:00:58;3.72;;;1.63;;
48813;SDS011;34634;44.108;3.074;2022-07-04T18:03:25;4.95;;;1.92;;
48813;SDS011;34634;44.108;3.074;2022-07-04T18:05:51;3.58;;;1.60;;
48813;SDS011;34634;44.108;3.074;2022-07-04T18:08:17;6.30;;;1.73;;
48813;SDS011;34634;44.108;3.074;2022-07-04T18:10:44;2.75;;;1.55;;
48813;SDS011;34634;44.108;3.074;2022-07-04T18:13:10;3.22;;;1.50;;
48813;SDS011;34634;44.108;3.074;2022-07-04T18:15:36;3.25;;;1.52;;